Time;durP1;ratioP1;P1;durP2;ratioP2;P2;SDS_P1;SDS_P2;PMS_P1;PMS_P2;Temp;Humidity;BMP_temperature;BMP_pressure;BME280_temperature;BME280_humidity;BME280_pressure;Samples;Min_cycle;Max_cycle;Signal;HPM_P1;HPM_P2
2024/02/16 00:00:17;;;;;;;0.30;0.20;;;6.30;99.90;;;;;;5086063;28;20230;-76
2024/02/16 00:02:44;;;;;;;0.30;0.20;;;6.30;99.90;;;;;;5101187;28;20433;-77
2024/02/16 00:05:13;;;;;;;0.30;0.30;;;6.30;99.90;;;;;;5086242;28;20653;-76
2024/02/16 00:07:39;;;;;;;0.30;0.20;;;6.30;99.90;;;;;;5085562;28;20196;-76
2024/02/16 00:10:06;;;;;;;0.30;0.20;;;6.20;99.90;;;;;;5085730;28;20180;-76
2024/02/16 00:12:33;;;;;;;0.30;0.20;;;6.10;99.90;;;;;;5101119;28;20224;-77
2024/02/16 00:14:59;;;;;;;0.30;0.20;;;6.10;99.90;;;;;;5084118;28;20880;-77
2024/02/16 00:17:28;;;;;;;0.30;0.20;;;6.10;99.90;;;;;;5085910;28;20172;-77
2024/02/16 00:19:55;;;;;;;0.30;0.30;;;6.10;99.90;;;;;;5100861;28;20188;-76
2024/02/16 00:22:21;;;;;;;0.30;0.20;;;6.00;99.90;;;;;;5084938;28;20173;-76
2024/02/16 00:24:47;;;;;;;0.30;0.20;;;6.00;99.90;;;;;;5101277;28;20187;-77
2024/02/16 00:27:13;;;;;;;0.30;0.20;;;6.00;99.90;;;;;;5084160;28;20180;-76
2024/02/16 00:29:40;;;;;;;0.30;0.20;;;6.00;99.90;;;;;;5085762;28;20237;-77
2024/02/16 00:32:06;;;;;;;0.30;0.30;;;6.00;99.90;;;;;;5083699;28;20293;-76
2024/02/16 00:34:32;;;;;;;0.30;0.20;;;6.00;99.90;;;;;;5084087;28;20208;-77
2024/02/16 00:36:58;;;;;;;0.30;0.20;;;5.90;99.90;;;;;;5085784;28;20954;-76
2024/02/16 00:39:24;;;;;;;1.07;1.00;;;5.90;99.90;;;;;;5083055;28;20317;-76
2024/02/16 00:41:50;;;;;;;0.30;0.20;;;5.90;99.90;;;;;;5085214;28;20183;-77
2024/02/16 00:44:17;;;;;;;0.30;0.20;;;5.90;99.90;;;;;;5085501;28;20196;-77
2024/02/16 00:46:43;;;;;;;0.30;0.20;;;5.90;99.90;;;;;;5085336;28;20441;-76
2024/02/16 00:49:10;;;;;;;0.30;0.30;;;5.80;99.90;;;;;;5085413;28;20193;-76
2024/02/16 00:51:36;;;;;;;0.30;0.30;;;5.80;99.90;;;;;;5084147;28;20181;-77
2024/02/16 00:54:03;;;;;;;86.35;76.88;;;5.70;99.90;;;;;;5085104;28;20207;-76
2024/02/16 00:56:29;;;;;;;0.30;0.20;;;5.70;99.90;;;;;;5085609;28;20751;-75
2024/02/16 00:58:55;;;;;;;0.30;0.20;;;5.70;99.90;;;;;;5085313;28;20642;-77
2024/02/16 01:01:22;;;;;;;0.30;0.20;;;5.70;99.90;;;;;;5085630;28;20272;-75
2024/02/16 01:03:51;;;;;;;0.30;0.30;;;5.70;99.90;;;;;;5084995;28;20188;-77
2024/02/16 01:06:17;;;;;;;0.30;0.20;;;5.60;99.90;;;;;;5085465;28;20233;-77
2024/02/16 01:08:44;;;;;;;0.30;0.20;;;5.60;99.90;;;;;;5083833;28;20200;-75
2024/02/16 01:11:09;;;;;;;1.30;1.23;;;5.60;99.90;;;;;;5085162;28;20247;-76
2024/02/16 01:13:35;;;;;;;0.30;0.30;;;5.50;99.90;;;;;;5085186;28;20361;-77
2024/02/16 01:16:02;;;;;;;0.30;0.20;;;5.50;99.90;;;;;;5084929;28;20689;-77
2024/02/16 01:18:29;;;;;;;0.30;0.20;;;5.50;99.90;;;;;;5084897;28;20188;-76
2024/02/16 01:20:55;;;;;;;0.30;0.20;;;5.50;99.90;;;;;;5085262;28;20176;-76
2024/02/16 01:23:21;;;;;;;0.30;0.30;;;5.40;99.90;;;;;;5085127;28;20800;-77
2024/02/16 01:25:47;;;;;;;0.93;0.93;;;5.40;99.90;;;;;;5083853;28;20583;-76
2024/02/16 01:28:13;;;;;;;0.30;0.30;;;5.40;99.90;;;;;;5084439;28;20196;-77
2024/02/16 01:30:40;;;;;;;0.30;0.20;;;5.30;99.90;;;;;;5085080;28;20190;-75
2024/02/16 01:33:06;;;;;;;0.30;0.20;;;5.30;99.90;;;;;;5085274;28;20205;-75
2024/02/16 01:35:35;;;;;;;0.30;0.30;;;5.30;99.90;;;;;;5088758;28;20214;-76
2024/02/16 01:38:01;;;;;;;0.30;0.20;;;5.30;99.90;;;;;;5088084;28;20192;-76
2024/02/16 01:40:28;;;;;;;0.30;0.20;;;5.20;99.90;;;;;;5089178;28;20547;-76
2024/02/16 01:42:54;;;;;;;0.30;0.20;;;5.20;99.90;;;;;;5087608;28;20424;-76
2024/02/16 01:45:20;;;;;;;0.30;0.20;;;5.20;99.90;;;;;;5088446;28;20259;-75
2024/02/16 01:47:51;;;;;;;0.30;0.20;;;5.20;99.90;;;;;;5086823;28;20207;-75
2024/02/16 01:50:17;;;;;;;0.30;0.20;;;5.10;99.90;;;;;;5088607;28;20545;-77
2024/02/16 01:52:44;;;;;;;0.30;0.30;;;5.10;99.90;;;;;;5088113;28;20348;-77
2024/02/16 01:55:12;;;;;;;0.30;0.20;;;5.10;99.90;;;;;;5088268;28;20247;-75
2024/02/16 01:57:44;;;;;;;0.30;0.20;;;5.20;99.90;;;;;;5088012;28;20696;-77
2024/02/16 02:00:10;;;;;;;0.30;0.20;;;5.20;99.90;;;;;;5104025;28;20439;-75
2024/02/16 02:02:36;;;;;;;0.30;0.20;;;5.20;99.90;;;;;;5088150;28;20587;-75
2024/02/16 02:05:03;;;;;;;0.30;0.22;;;5.20;99.90;;;;;;5088135;28;20217;-77
2024/02/16 02:07:29;;;;;;;0.30;0.20;;;5.20;99.90;;;;;;5088300;28;20188;-75
2024/02/16 02:09:55;;;;;;;0.30;0.20;;;5.20;99.90;;;;;;5086743;28;20223;-77
2024/02/16 02:12:22;;;;;;;0.30;0.20;;;5.30;99.90;;;;;;5088273;28;20243;-77
2024/02/16 02:14:52;;;;;;;0.30;0.20;;;5.30;99.90;;;;;;5088009;28;20468;-77
2024/02/16 02:17:18;;;;;;;0.30;0.22;;;5.30;99.90;;;;;;5087757;28;20677;-75
2024/02/16 02:19:46;;;;;;;0.30;0.22;;;5.30;99.90;;;;;;5086660;28;20658;-75
2024/02/16 02:22:15;;;;;;;1.13;1.08;;;5.30;99.90;;;;;;5087938;28;20269;-76
2024/02/16 02:24:41;;;;;;;0.30;0.20;;;5.30;99.90;;;;;;5087982;28;20531;-75
2024/02/16 02:27:07;;;;;;;0.30;0.20;;;5.30;99.90;;;;;;5086334;28;20252;-76
2024/02/16 02:29:33;;;;;;;0.30;0.20;;;5.30;99.90;;;;;;5087650;28;20279;-76
2024/02/16 02:31:59;;;;;;;0.30;0.20;;;5.30;99.90;;;;;;5103066;28;20176;-77
2024/02/16 02:34:25;;;;;;;0.30;0.20;;;5.30;99.90;;;;;;5086938;28;20201;-76
2024/02/16 02:36:51;;;;;;;0.30;0.20;;;5.20;99.90;;;;;;5087717;28;20563;-76
2024/02/16 02:39:17;;;;;;;0.30;0.30;;;5.20;99.90;;;;;;5087098;28;20659;-77
2024/02/16 02:41:43;;;;;;;0.30;0.20;;;5.20;99.90;;;;;;5086856;28;20771;-76
2024/02/16 02:44:09;;;;;;;0.30;0.30;;;5.10;99.90;;;;;;5085805;28;20193;-76
2024/02/16 02:46:35;;;;;;;0.30;0.20;;;5.00;99.90;;;;;;5087301;28;20176;-77
2024/02/16 02:49:01;;;;;;;0.30;0.20;;;5.00;99.90;;;;;;5085411;28;20199;-77
2024/02/16 02:51:27;;;;;;;0.30;0.20;;;4.90;99.90;;;;;;5103348;28;20176;-75
2024/02/16 02:53:53;;;;;;;0.30;0.20;;;4.90;99.90;;;;;;5085592;28;20204;-75
2024/02/16 02:56:18;;;;;;;0.30;0.20;;;4.90;99.90;;;;;;5087209;28;20484;-76
2024/02/16 02:58:44;;;;;;;0.30;0.20;;;4.80;99.90;;;;;;5102720;28;20208;-77
2024/02/16 03:01:10;;;;;;;0.30;0.20;;;4.80;99.90;;;;;;5102772;28;20181;-76
2024/02/16 03:03:35;;;;;;;0.30;0.20;;;4.70;99.90;;;;;;5087141;28;20197;-77
2024/02/16 03:06:01;;;;;;;0.30;0.30;;;4.60;99.90;;;;;;5087271;28;20393;-77
2024/02/16 03:08:27;;;;;;;0.30;0.22;;;4.60;99.90;;;;;;5102262;28;20720;-75
2024/02/16 03:10:53;;;;;;;0.30;0.30;;;4.50;99.90;;;;;;5086779;28;20228;-75
2024/02/16 03:13:19;;;;;;;0.30;0.30;;;4.50;99.90;;;;;;5085317;28;20673;-77
2024/02/16 03:15:45;;;;;;;0.30;0.20;;;4.50;99.90;;;;;;5085423;28;20218;-77
2024/02/16 03:18:11;;;;;;;0.30;0.30;;;4.50;99.90;;;;;;5102049;28;20283;-75
2024/02/16 03:20:36;;;;;;;0.30;0.20;;;4.50;99.90;;;;;;5086934;28;20709;-76
2024/02/16 03:23:02;;;;;;;0.30;0.30;;;4.40;99.90;;;;;;5086319;28;20440;-77
2024/02/16 03:25:29;;;;;;;0.30;0.30;;;4.40;99.90;;;;;;5102294;28;20543;-75
2024/02/16 03:27:54;;;;;;;0.30;0.20;;;4.40;99.90;;;;;;5086632;28;20638;-77
2024/02/16 03:30:21;;;;;;;0.30;0.20;;;4.40;99.90;;;;;;5086403;28;20176;-77
2024/02/16 03:32:51;;;;;;;0.30;0.20;;;4.30;99.90;;;;;;5085950;28;20900;-75
2024/02/16 03:35:17;;;;;;;0.30;0.20;;;4.30;99.90;;;;;;5086277;28;20665;-77
2024/02/16 03:37:42;;;;;;;0.30;0.20;;;4.30;99.90;;;;;;5086319;28;20719;-76
2024/02/16 03:40:09;;;;;;;0.30;0.20;;;4.30;99.90;;;;;;5086304;28;20208;-76
2024/02/16 03:42:36;;;;;;;0.30;0.20;;;4.20;99.90;;;;;;5085579;28;20195;-75
2024/02/16 03:45:02;;;;;;;0.30;0.20;;;4.10;99.90;;;;;;5084326;28;20549;-77
2024/02/16 03:47:28;;;;;;;0.30;0.20;;;4.10;99.90;;;;;;5086360;28;20188;-76
2024/02/16 03:49:54;;;;;;;0.30;0.20;;;4.10;99.90;;;;;;5084696;28;20634;-76
2024/02/16 03:52:20;;;;;;;0.30;0.20;;;4.10;99.90;;;;;;5084671;28;20252;-76
2024/02/16 03:54:48;;;;;;;0.30;0.20;;;4.10;99.90;;;;;;5086070;28;20505;-75
2024/02/16 03:57:16;;;;;;;0.30;0.30;;;4.10;99.90;;;;;;5101553;28;20585;-77
2024/02/16 03:59:45;;;;;;;0.30;0.30;;;4.10;99.90;;;;;;5085746;28;20187;-75
2024/02/16 04:02:14;;;;;;;0.30;0.30;;;4.10;99.90;;;;;;5101501;28;20185;-75
2024/02/16 04:04:39;;;;;;;0.30;0.30;;;4.10;99.90;;;;;;5084633;28;20273;-75
2024/02/16 04:07:08;;;;;;;0.30;0.30;;;4.10;99.90;;;;;;5085886;28;20208;-76
2024/02/16 04:09:34;;;;;;;0.30;0.20;;;4.00;99.90;;;;;;5085792;28;20192;-77
2024/02/16 04:12:01;;;;;;;0.30;0.30;;;4.00;99.90;;;;;;5085936;28;20236;-75
2024/02/16 04:14:27;;;;;;;0.30;0.30;;;4.00;99.90;;;;;;5100897;28;20571;-75
2024/02/16 04:16:52;;;;;;;0.30;0.30;;;3.90;99.90;;;;;;5101384;28;20216;-76
2024/02/16 04:19:18;;;;;;;0.30;0.30;;;3.90;99.90;;;;;;5085488;28;20419;-76
2024/02/16 04:21:44;;;;;;;1.80;1.70;;;4.00;99.90;;;;;;5101439;28;20494;-77
2024/02/16 04:24:10;;;;;;;0.30;0.20;;;4.10;99.90;;;;;;5085636;28;20521;-77
2024/02/16 04:26:36;;;;;;;0.30;0.30;;;4.20;99.90;;;;;;5085795;28;20304;-77
2024/02/16 04:29:04;;;;;;;0.30;0.20;;;4.30;99.90;;;;;;5085727;28;20196;-75
2024/02/16 04:31:30;;;;;;;0.30;0.20;;;4.40;99.90;;;;;;5084106;28;20191;-77
2024/02/16 04:33:55;;;;;;;0.30;0.20;;;4.40;99.90;;;;;;5100704;28;20196;-75
2024/02/16 04:36:21;;;;;;;0.30;0.20;;;4.50;99.90;;;;;;5101020;28;20209;-76
2024/02/16 04:38:47;;;;;;;0.30;0.20;;;4.60;99.90;;;;;;5085506;28;20207;-75
2024/02/16 04:41:13;;;;;;;0.30;0.20;;;4.70;99.90;;;;;;5085578;28;20380;-76
2024/02/16 04:43:39;;;;;;;0.30;0.30;;;4.80;99.90;;;;;;5100891;28;20411;-77
2024/02/16 04:46:05;;;;;;;0.32;0.32;;;4.90;99.90;;;;;;5084450;28;20298;-76
2024/02/16 04:48:32;;;;;;;0.30;0.20;;;4.90;99.90;;;;;;5085296;28;20261;-76
2024/02/16 04:50:57;;;;;;;0.30;0.20;;;5.00;99.90;;;;;;5101064;28;20453;-75
2024/02/16 04:53:23;;;;;;;0.30;0.20;;;5.10;99.90;;;;;;5085206;28;20189;-76
2024/02/16 04:55:49;;;;;;;0.30;0.30;;;5.10;99.90;;;;;;5085425;28;20357;-77
2024/02/16 04:58:14;;;;;;;0.40;0.40;;;5.20;99.90;;;;;;5085144;28;20520;-76
2024/02/16 05:00:40;;;;;;;0.30;0.20;;;5.20;99.90;;;;;;5101096;28;20589;-76
2024/02/16 05:03:06;;;;;;;0.30;0.20;;;5.30;99.90;;;;;;5083508;28;20198;-75
2024/02/16 05:05:32;;;;;;;0.30;0.20;;;5.30;99.90;;;;;;5084265;28;20192;-76
2024/02/16 05:07:58;;;;;;;0.30;0.20;;;5.30;99.90;;;;;;5084651;28;20195;-77
2024/02/16 05:10:24;;;;;;;0.30;0.20;;;5.40;99.90;;;;;;5089079;28;20413;-77
2024/02/16 05:12:49;;;;;;;0.30;0.30;;;5.40;99.90;;;;;;5089049;28;20432;-77
2024/02/16 05:15:15;;;;;;;0.30;0.20;;;5.40;99.90;;;;;;5088744;28;20598;-77
2024/02/16 05:17:41;;;;;;;0.30;0.20;;;5.50;99.90;;;;;;5088884;28;20289;-76
2024/02/16 05:20:16;;;;;;;0.30;0.20;;;5.50;99.90;;;;;;5088866;28;20238;-76
2024/02/16 05:22:45;;;;;;;0.30;0.20;;;5.50;99.90;;;;;;5089035;28;20188;-78
2024/02/16 05:25:13;;;;;;;0.30;0.20;;;5.50;99.90;;;;;;5089390;28;20199;-78
2024/02/16 05:27:39;;;;;;;0.30;0.30;;;5.50;99.90;;;;;;5088915;28;20184;-77
2024/02/16 05:30:07;;;;;;;0.30;0.30;;;5.60;99.90;;;;;;5102228;28;20224;-77
2024/02/16 05:32:35;;;;;;;0.30;0.28;;;5.60;99.90;;;;;;5107603;28;20168;-75
2024/02/16 05:35:04;;;;;;;0.30;0.20;;;5.60;99.90;;;;;;5105314;28;20383;-77
2024/02/16 05:37:32;;;;;;;0.30;0.20;;;5.60;99.90;;;;;;5105538;28;20211;-77
2024/02/16 05:40:08;;;;;;;0.30;0.20;;;5.60;99.90;;;;;;5106592;28;20160;-77
2024/02/16 05:42:34;;;;;;;0.30;0.22;;;5.60;99.90;;;;;;5107466;28;20936;-77
2024/02/16 05:44:59;;;;;;;0.30;0.28;;;5.60;99.90;;;;;;5107254;28;20176;-75
2024/02/16 05:47:25;;;;;;;0.30;0.30;;;5.60;99.90;;;;;;5105636;28;20168;-77
2024/02/16 05:49:51;;;;;;;0.30;0.30;;;5.60;99.90;;;;;;5108368;28;20187;-76
2024/02/16 05:52:20;;;;;;;0.30;0.20;;;5.50;99.90;;;;;;5107855;28;20176;-75
2024/02/16 05:54:47;;;;;;;0.30;0.20;;;5.50;99.90;;;;;;5096922;28;20653;-77
2024/02/16 05:57:13;;;;;;;0.30;0.30;;;5.40;99.90;;;;;;5083998;28;20185;-77
2024/02/16 05:59:39;;;;;;;0.30;0.30;;;5.40;99.90;;;;;;5088981;28;20176;-77
2024/02/16 06:02:06;;;;;;;0.30;0.20;;;5.40;99.90;;;;;;5121231;27;20215;-76
2024/02/16 06:04:33;;;;;;;0.30;0.20;;;5.30;99.90;;;;;;5106453;27;20406;-75
2024/02/16 06:06:59;;;;;;;0.30;0.20;;;5.00;99.90;;;;;;5106855;27;20391;-77
2024/02/16 06:09:30;;;;;;;0.30;0.30;;;4.60;99.90;;;;;;5087060;28;20192;-75
2024/02/16 06:12:07;;;;;;;0.30;0.30;;;4.50;99.90;;;;;;5089462;28;20232;-75
2024/02/16 06:14:33;;;;;;;0.30;0.20;;;4.30;99.90;;;;;;5103920;28;20185;-77
2024/02/16 06:16:59;;;;;;;0.30;0.30;;;4.20;99.90;;;;;;5102704;27;20216;-77
2024/02/16 06:19:26;;;;;;;0.30;0.30;;;4.10;99.90;;;;;;5081302;28;20317;-75
2024/02/16 06:21:54;;;;;;;0.30;0.30;;;4.00;99.90;;;;;;5083148;28;20247;-75
2024/02/16 06:24:20;;;;;;;0.30;0.30;;;4.00;99.90;;;;;;5101547;28;20203;-76
2024/02/16 06:26:46;;;;;;;0.30;0.20;;;3.90;99.90;;;;;;5118929;27;20183;-77
2024/02/16 06:29:12;;;;;;;0.30;0.20;;;3.90;99.90;;;;;;5102455;28;20184;-77
2024/02/16 06:31:37;;;;;;;0.30;0.20;;;3.90;99.90;;;;;;5101807;28;20241;-77
2024/02/16 06:34:03;;;;;;;0.30;0.20;;;3.90;99.90;;;;;;5102820;28;20416;-75
2024/02/16 06:36:29;;;;;;;0.30;0.30;;;3.90;99.90;;;;;;5119113;27;20211;-77
2024/02/16 06:38:54;;;;;;;0.40;0.37;;;4.00;99.90;;;;;;5119214;27;20231;-76
2024/02/16 06:41:20;;;;;;;0.30;0.20;;;4.00;99.90;;;;;;5102900;28;20184;-77
2024/02/16 06:43:46;;;;;;;0.30;0.30;;;4.10;99.90;;;;;;5102462;28;20249;-75
2024/02/16 06:46:11;;;;;;;6.23;5.90;;;4.20;99.90;;;;;;5102746;28;20183;-75
2024/02/16 06:48:37;;;;;;;0.30;0.20;;;4.30;99.90;;;;;;5100305;28;20192;-75
2024/02/16 06:51:03;;;;;;;0.30;0.20;;;4.40;99.90;;;;;;5103571;28;20664;-77
2024/02/16 06:53:28;;;;;;;2.33;2.30;;;4.60;99.90;;;;;;5102639;28;20244;-76
2024/02/16 06:55:54;;;;;;;0.30;0.30;;;4.70;99.90;;;;;;5102909;28;20294;-75
2024/02/16 06:58:20;;;;;;;0.30;0.20;;;4.70;99.90;;;;;;5101728;28;20196;-77
2024/02/16 07:00:46;;;;;;;24.07;22.90;;;4.80;99.90;;;;;;5096827;28;20675;-77
2024/02/16 07:03:12;;;;;;;0.30;0.20;;;4.90;99.90;;;;;;5101779;28;20478;-76
2024/02/16 07:05:39;;;;;;;0.30;0.20;;;5.00;99.90;;;;;;5101999;28;20176;-77
2024/02/16 07:08:07;;;;;;;0.30;0.20;;;5.10;99.90;;;;;;5118472;27;20223;-76
2024/02/16 07:10:33;;;;;;;0.30;0.20;;;5.20;99.90;;;;;;5104827;28;20199;-78
2024/02/16 07:12:59;;;;;;;0.30;0.20;;;5.30;99.90;;;;;;5117553;27;20749;-77
2024/02/16 07:15:26;;;;;;;0.30;0.20;;;5.50;99.90;;;;;;5101567;28;20558;-76
2024/02/16 07:17:51;;;;;;;0.30;0.20;;;5.70;99.90;;;;;;5115973;27;20207;-79
2024/02/16 07:20:18;;;;;;;0.30;0.30;;;5.80;99.90;;;;;;5100255;28;20175;-77
2024/02/16 07:22:46;;;;;;;0.30;0.20;;;5.90;99.90;;;;;;5099329;28;20706;-78
2024/02/16 07:25:12;;;;;;;0.30;0.20;;;6.00;99.90;;;;;;5098280;28;20263;-78
2024/02/16 07:27:38;;;;;;;0.30;0.20;;;6.20;99.90;;;;;;5114018;27;20203;-76
2024/02/16 07:30:04;;;;;;;0.30;0.20;;;6.40;99.90;;;;;;5098874;28;20176;-77
2024/02/16 07:32:30;;;;;;;0.30;0.22;;;6.50;99.90;;;;;;5096381;28;20409;-79
2024/02/16 07:34:56;;;;;;;0.30;0.30;;;6.70;99.90;;;;;;5103117;28;20484;-76
2024/02/16 07:37:21;;;;;;;0.30;0.30;;;6.80;99.90;;;;;;5105043;28;20182;-78
2024/02/16 07:39:47;;;;;;;0.30;0.30;;;7.20;99.90;;;;;;5105286;28;20184;-76
2024/02/16 07:42:13;;;;;;;0.30;0.30;;;7.90;99.90;;;;;;5103476;28;20176;-76
2024/02/16 07:44:39;;;;;;;2.53;2.43;;;8.50;99.90;;;;;;5102687;28;20176;-77
2024/02/16 07:47:05;;;;;;;0.30;0.20;;;8.90;99.90;;;;;;5105283;28;20487;-78
2024/02/16 07:49:31;;;;;;;0.40;0.30;;;9.10;99.90;;;;;;5103203;28;20195;-76
2024/02/16 07:51:57;;;;;;;0.50;0.50;;;9.20;99.90;;;;;;5104133;28;20408;-77
2024/02/16 07:54:23;;;;;;;4.60;4.50;;;9.30;99.90;;;;;;5103310;28;20198;-78
2024/02/16 07:56:49;;;;;;;1.48;1.48;;;9.30;99.90;;;;;;5102581;28;20211;-78
2024/02/16 07:59:15;;;;;;;2.20;2.03;;;9.40;99.90;;;;;;5101881;28;20196;-76
2024/02/16 08:01:44;;;;;;;0.30;0.20;;;9.50;99.90;;;;;;5102738;28;20621;-78
2024/02/16 08:04:10;;;;;;;0.30;0.20;;;9.80;99.90;;;;;;5100935;28;20284;-77
2024/02/16 08:06:35;;;;;;;0.67;0.67;;;10.30;99.90;;;;;;5100541;28;20219;-77
2024/02/16 08:09:02;;;;;;;0.33;0.30;;;11.00;99.90;;;;;;5100326;28;20191;-77
2024/02/16 08:11:28;;;;;;;0.40;0.40;;;11.70;99.90;;;;;;5103024;28;20848;-78
2024/02/16 08:13:55;;;;;;;0.50;0.50;;;12.50;99.90;;;;;;5103118;28;20449;-77
2024/02/16 08:16:21;;;;;;;5.00;4.67;;;13.10;99.90;;;;;;5101908;28;20210;-78
2024/02/16 08:18:47;;;;;;;1.23;1.23;;;13.90;99.90;;;;;;5102226;27;20709;-77
2024/02/16 08:21:12;;;;;;;0.53;0.50;;;14.80;99.90;;;;;;5106814;27;20438;-77
2024/02/16 08:23:38;;;;;;;0.40;0.30;;;15.60;99.90;;;;;;5103400;28;20204;-78
2024/02/16 08:26:04;;;;;;;2.73;2.23;;;16.40;98.80;;;;;;5101826;28;20251;-78
2024/02/16 08:28:30;;;;;;;0.40;0.40;;;17.10;97.00;;;;;;5102089;28;20206;-77
2024/02/16 08:30:55;;;;;;;4.53;2.93;;;17.60;95.80;;;;;;5103026;28;21054;-77
2024/02/16 08:33:21;;;;;;;0.40;0.40;;;18.10;94.60;;;;;;5103087;28;20260;-77
2024/02/16 08:35:47;;;;;;;2.40;2.30;;;18.60;93.50;;;;;;5103391;28;20228;-77
2024/02/16 08:38:12;;;;;;;0.83;0.83;;;19.00;92.60;;;;;;5103010;28;20615;-78
2024/02/16 08:40:38;;;;;;;2.60;1.70;;;19.50;92.10;;;;;;5116455;28;20274;-78
2024/02/16 08:43:07;;;;;;;0.60;0.60;;;20.00;90.90;;;;;;5101694;28;20206;-78
2024/02/16 08:45:33;;;;;;;0.40;0.30;;;20.50;89.30;;;;;;5103346;28;20298;-79
2024/02/16 08:48:01;;;;;;;0.57;0.57;;;21.00;87.80;;;;;;5102973;28;20464;-78
2024/02/16 08:50:27;;;;;;;2.50;2.40;;;21.50;86.50;;;;;;5103549;28;20430;-78
2024/02/16 08:52:52;;;;;;;1.03;0.93;;;21.90;83.00;;;;;;5103853;28;20546;-78
2024/02/16 08:55:18;;;;;;;0.40;0.30;;;22.30;81.10;;;;;;5113574;28;20571;-78
2024/02/16 08:57:45;;;;;;;1.50;1.40;;;22.70;80.10;;;;;;5101954;28;20463;-79
2024/02/16 09:00:11;;;;;;;3.50;3.30;;;23.00;79.60;;;;;;5101577;28;20194;-80
2024/02/16 09:02:37;;;;;;;9.07;3.20;;;23.30;79.00;;;;;;5101420;28;20429;-79
2024/02/16 09:05:04;;;;;;;2.53;1.90;;;23.50;77.10;;;;;;5099728;28;20726;-79
2024/02/16 09:07:30;;;;;;;0.70;0.70;;;23.70;77.20;;;;;;5098920;28;20462;-79
2024/02/16 09:09:56;;;;;;;2.10;2.00;;;23.90;76.70;;;;;;5095594;28;20439;-78
2024/02/16 09:12:22;;;;;;;2.07;1.87;;;24.00;74.50;;;;;;5112404;28;20466;-78
2024/02/16 09:14:48;;;;;;;16.43;2.67;;;24.10;75.10;;;;;;5099222;28;20504;-78
2024/02/16 09:17:14;;;;;;;0.50;0.40;;;24.30;74.20;;;;;;5100717;28;20507;-78
2024/02/16 09:19:39;;;;;;;1.70;0.80;;;24.30;73.50;;;;;;5099482;28;20570;-78
2024/02/16 09:22:06;;;;;;;1.07;0.97;;;24.10;73.00;;;;;;5101214;28;20262;-78
2024/02/16 09:24:32;;;;;;;1.03;0.70;;;23.90;72.80;;;;;;5099536;28;20184;-79
2024/02/16 09:27:03;;;;;;;0.53;0.53;;;23.70;73.20;;;;;;5091919;28;20466;-79
2024/02/16 09:29:29;;;;;;;3.03;1.30;;;23.60;73.20;;;;;;5091693;28;20476;-79
2024/02/16 09:31:55;;;;;;;1.57;1.53;;;23.60;73.70;;;;;;5101077;28;20424;-78
2024/02/16 09:34:21;;;;;;;1.87;1.77;;;23.70;73.00;;;;;;5102485;28;21081;-79
2024/02/16 09:36:46;;;;;;;0.50;0.50;;;23.90;72.00;;;;;;5102343;28;20467;-79
2024/02/16 09:39:12;;;;;;;1.27;1.17;;;24.00;71.20;;;;;;5102200;28;20460;-78
2024/02/16 09:41:41;;;;;;;0.73;0.73;;;23.80;71.80;;;;;;5102201;28;20227;-78
2024/02/16 09:44:07;;;;;;;0.50;0.50;;;23.80;71.50;;;;;;5102207;28;20203;-79
2024/02/16 09:46:33;;;;;;;0.60;0.60;;;23.80;71.20;;;;;;5102255;28;20453;-79
2024/02/16 09:49:03;;;;;;;0.70;0.70;;;23.70;71.50;;;;;;5104047;28;20201;-78
2024/02/16 09:51:30;;;;;;;0.47;0.47;;;23.50;71.60;;;;;;5103120;28;20439;-79
2024/02/16 09:53:56;;;;;;;1.10;1.00;;;23.20;71.70;;;;;;5103761;28;20531;-79
2024/02/16 09:56:24;;;;;;;4.53;1.33;;;23.00;72.30;;;;;;5107096;28;20594;-79
2024/02/16 09:58:54;;;;;;;1.13;1.03;;;23.00;72.10;;;;;;5107621;28;20248;-79
2024/02/16 10:01:22;;;;;;;0.30;0.20;;;22.90;72.00;;;;;;5106890;28;20423;-78
2024/02/16 10:03:49;;;;;;;1.13;1.03;;;22.80;71.80;;;;;;5107884;28;20447;-78
2024/02/16 10:06:15;;;;;;;0.30;0.20;;;22.80;71.90;;;;;;5107562;28;20778;-79
2024/02/16 10:08:56;;;;;;;0.87;0.87;;;22.80;72.50;;;;;;5096887;28;20468;-79
2024/02/16 10:11:27;;;;;;;3.80;3.40;;;22.80;72.00;;;;;;5105477;28;20831;-78
2024/02/16 10:13:56;;;;;;;0.63;0.63;;;22.80;72.00;;;;;;5109925;27;20462;-78
2024/02/16 10:16:22;;;;;;;1.37;1.27;;;22.70;71.60;;;;;;5095406;28;20467;-78
2024/02/16 10:18:48;;;;;;;0.90;0.73;;;22.60;72.10;;;;;;5106818;28;20810;-78
2024/02/16 10:21:23;;;;;;;3.20;1.80;;;22.60;72.10;;;;;;5106751;28;20429;-79
2024/02/16 10:24:07;;;;;;;1.43;0.77;;;22.40;72.30;;;;;;5099359;28;20685;-78
2024/02/16 10:26:37;;;;;;;0.40;0.30;;;22.00;71.80;;;;;;5106437;28;20492;-79
2024/02/16 10:29:03;;;;;;;0.30;0.20;;;21.40;72.70;;;;;;5108932;27;20868;-79
2024/02/16 10:31:31;;;;;;;0.40;0.40;;;20.80;73.70;;;;;;5096571;28;20428;-77
2024/02/16 10:33:59;;;;;;;0.53;0.53;;;20.20;75.50;;;;;;5106390;28;20447;-77
2024/02/16 10:36:29;;;;;;;0.40;0.30;;;19.90;74.60;;;;;;5103726;28;20463;-77
2024/02/16 10:38:56;;;;;;;0.50;0.43;;;19.40;75.10;;;;;;5107056;28;20650;-77
2024/02/16 10:41:28;;;;;;;1.47;0.87;;;19.00;76.10;;;;;;5105057;28;20432;-78
2024/02/16 10:43:55;;;;;;;2.00;1.13;;;18.60;77.30;;;;;;5106863;28;20501;-79
2024/02/16 10:46:21;;;;;;;0.60;0.60;;;18.40;78.50;;;;;;5106603;28;20412;-78
2024/02/16 10:48:48;;;;;;;0.37;0.27;;;18.20;78.40;;;;;;5103805;28;20484;-77
2024/02/16 10:51:19;;;;;;;0.30;0.30;;;18.00;78.40;;;;;;5104886;28;20613;-78
2024/02/16 10:53:47;;;;;;;1.13;0.60;;;17.80;78.50;;;;;;5103355;28;20454;-79
2024/02/16 10:56:13;;;;;;;0.87;0.87;;;17.60;79.50;;;;;;5104894;28;20471;-78
2024/02/16 10:58:40;;;;;;;0.30;0.30;;;17.50;79.70;;;;;;5105261;28;20944;-78
2024/02/16 11:01:12;;;;;;;0.30;0.20;;;17.40;79.70;;;;;;5104949;28;20477;-77
2024/02/16 11:03:39;;;;;;;0.50;0.50;;;17.30;79.80;;;;;;5103743;28;20489;-76
2024/02/16 11:06:18;;;;;;;0.87;0.87;;;17.10;80.30;;;;;;5104025;28;20632;-77
2024/02/16 11:08:44;;;;;;;0.40;0.20;;;16.80;79.70;;;;;;5106326;28;20813;-76
2024/02/16 11:11:11;;;;;;;0.40;0.30;;;16.70;80.30;;;;;;5106580;28;20691;-77
2024/02/16 11:13:37;;;;;;;0.30;0.20;;;16.80;81.50;;;;;;5106720;28;20868;-77
2024/02/16 11:16:08;;;;;;;0.30;0.20;;;16.90;80.90;;;;;;5104035;28;20869;-77
2024/02/16 11:18:46;;;;;;;0.60;0.60;;;17.00;81.20;;;;;;5106079;28;20481;-77
2024/02/16 11:21:15;;;;;;;0.30;0.20;;;17.10;81.50;;;;;;5106259;28;20394;-78
2024/02/16 11:23:42;;;;;;;0.30;0.20;;;17.10;82.10;;;;;;5105676;28;20444;-78
2024/02/16 11:26:12;;;;;;;0.30;0.20;;;17.10;82.70;;;;;;5113738;27;20433;-77
2024/02/16 11:28:40;;;;;;;0.60;0.60;;;17.10;81.80;;;;;;5103529;28;20475;-76
2024/02/16 11:31:07;;;;;;;2.93;2.70;;;17.10;82.60;;;;;;5112152;27;20817;-78
2024/02/16 11:33:33;;;;;;;0.73;0.73;;;17.10;81.50;;;;;;5092116;28;20451;-76
2024/02/16 11:36:08;;;;;;;0.30;0.20;;;17.00;81.00;;;;;;5107114;27;20834;-78
2024/02/16 11:38:35;;;;;;;0.30;0.20;;;17.00;80.70;;;;;;5093081;28;20452;-77
2024/02/16 11:41:10;;;;;;;0.30;0.20;;;17.00;81.40;;;;;;5106670;27;20484;-77
2024/02/16 11:43:36;;;;;;;1.57;1.50;;;16.90;81.70;;;;;;5092181;28;20448;-77
2024/02/16 11:46:13;;;;;;;0.30;0.20;;;16.90;82.00;;;;;;5108015;27;20780;-78
2024/02/16 11:48:39;;;;;;;0.30;0.20;;;17.00;82.00;;;;;;5092310;28;20772;-76
2024/02/16 11:51:05;;;;;;;0.30;0.20;;;17.00;82.00;;;;;;5106526;27;20535;-75
2024/02/16 11:53:31;;;;;;;0.50;0.50;;;17.10;81.50;;;;;;5090067;28;20452;-77
2024/02/16 11:55:57;;;;;;;0.30;0.30;;;17.10;79.70;;;;;;5106183;27;20553;-76
2024/02/16 11:58:24;;;;;;;3.30;1.80;;;17.00;79.80;;;;;;5089319;28;20455;-78
2024/02/16 12:00:51;;;;;;;0.40;0.40;;;17.10;80.70;;;;;;5103840;28;20425;-77
2024/02/16 12:03:21;;;;;;;3.03;0.87;;;17.00;81.00;;;;;;5102685;28;20453;-77
2024/02/16 12:05:54;;;;;;;0.30;0.20;;;17.00;81.20;;;;;;5102551;28;21174;-76
2024/02/16 12:08:21;;;;;;;0.30;0.20;;;17.00;80.90;;;;;;5100120;28;20448;-80
2024/02/16 12:10:52;;;;;;;0.30;0.20;;;17.10;80.00;;;;;;5099534;28;20475;-75
2024/02/16 12:13:18;;;;;;;0.30;0.20;;;17.10;80.20;;;;;;5101995;28;20502;-74
2024/02/16 12:15:46;;;;;;;0.50;0.50;;;17.00;80.40;;;;;;5103299;28;20480;-77
2024/02/16 12:18:25;;;;;;;0.30;0.30;;;17.00;81.00;;;;;;5102002;28;20432;-75
2024/02/16 12:21:20;;;;;;;0.30;0.20;;;17.10;81.00;;;;;;5104301;28;20918;-76
2024/02/16 12:23:46;;;;;;;0.30;0.20;;;17.10;80.60;;;;;;5093551;28;20498;-76
2024/02/16 12:26:12;;;;;;;0.30;0.20;;;17.10;80.30;;;;;;5119854;27;20710;-77
2024/02/16 12:28:37;;;;;;;0.30;0.20;;;17.00;78.80;;;;;;5100515;28;20253;-75
2024/02/16 12:31:03;;;;;;;0.30;0.20;;;16.90;79.40;;;;;;5083724;28;20171;-76
2024/02/16 12:33:30;;;;;;;0.30;0.30;;;16.90;80.00;;;;;;5082995;28;20235;-77
2024/02/16 12:35:55;;;;;;;0.80;0.80;;;17.00;79.60;;;;;;5087078;28;20556;-78
2024/02/16 12:38:21;;;;;;;0.30;0.20;;;16.90;80.90;;;;;;5099994;28;21025;-78
2024/02/16 12:40:47;;;;;;;0.30;0.20;;;16.90;81.40;;;;;;5098621;28;20655;-77
2024/02/16 12:43:13;;;;;;;0.30;0.20;;;16.90;80.30;;;;;;5097913;28;20204;-78
2024/02/16 12:45:40;;;;;;;0.63;0.63;;;17.00;79.80;;;;;;5098332;28;20575;-76
2024/02/16 12:48:06;;;;;;;0.50;0.50;;;17.00;80.70;;;;;;5099587;28;20449;-78
2024/02/16 12:50:32;;;;;;;0.30;0.20;;;17.00;80.60;;;;;;5099973;28;20556;-77